# Land Stadt Wetter Temperatur Luftdruck Luftfeuchtigkeit Sichtweite Windgeschwindigkeit Windrichtung Ortszeit
1 jp Nagasaki Clouds 12 1022 50 0 6 42 02.08.2018 14:21
2 us Death Valley Clear 20 1014 24 0 16 6 02.08.2018 14:22
3 sb Honiara Rain 26 1002 86 0 25 291 02.08.2018 14:22
4 de Magdeburg Clouds 7 1009 62 0 18 255 02.08.2018 14:22
5 cd Kisangani Clouds 29 1005 56 0 2 180 02.08.2018 14:23
6 ar Esquel Clear 19 1021 27 0 5 233 02.08.2018 14:22
7 ad Andorra la Vella Rain 8 1016 38 0 5 305 02.08.2018 14:22
8 de Hiddensee Rain 8 1006 64 0 3 225 02.08.2018 14:21
9 de Flensburg Rain 5 1001 81 0 41 300 02.08.2018 14:21
10 ru Werchojansk Clear -22 1026 87 0 2 318 02.08.2018 14:22
11 in Jagatsukh Clouds 1 1023 32 0 12 42 02.08.2018 14:22
12 bo Potisi Clear 14 1017 15 0 18 52 02.08.2018 14:22
13 ru Amderma Snow -12 980 94 0 34 290 02.08.2018 14:23
14 ch Andermatt Clouds 6 1010 53 0 4 0 02.08.2018 14:23
15 ar Ushuaia Rain 13 1002 67 0 20 339 02.08.2018 14:22
16 mn Uliastai Clear -5 1031 42 0 8 110 02.08.2018 14:23
17 fj Suva Rain 24 1008 88 0 5 293 02.08.2018 14:21
18 cn Lhasa Clouds 3 1015 16 0 8 145 02.08.2018 14:22
19 it Palermo Rain 10 998 73 0 4 92 02.08.2018 14:22
20 de Torfhaus Clouds 6 1010 62 0 16 225 02.08.2018 14:22
21 in Mumbai Haze 28 1009 78 3000 11 300 02.08.2018 14:22
22 in Nagpur Haze 29 1010 35 4000 5 30 02.08.2018 14:21
23 se Stockholm Rain 3 978 72 4500 37 280 02.08.2018 14:23
24 vn Hanoi Mist 21 1012 94 4600 5 80 02.08.2018 14:21
25 ua Kiew Clear 5 1011 44 6000 7 220 02.08.2018 14:21
26 tr Alanya Clouds 13 1017 76 6000 8 340 02.08.2018 14:22
27 id Jakarta Clouds 26 1009 83 6000 11 250 02.08.2018 14:22
28 us Denver Snow -4 1013 100 6437 15 30 02.08.2018 14:21
29 nz Wellington Drizzle 12 1022 93 7000 22 190 02.08.2018 14:23
30 de Emden Clouds 8 1006 81 7000 35 270 02.08.2018 14:21
31 mx Veracruz Clouds 32 1011 52 8047 18 200 02.08.2018 14:21
32 ru Surgut Snow -1 995 86 9000 36 270 02.08.2018 14:23
33 mx Mexiko Stadt Clear 24 1025 36 9656 8 120 02.08.2018 14:21
34 fi Helsinki Rain 5 980 75 10000 41 200 02.08.2018 14:21
35 at Wien Clear 8 1010 30 10000 18 150 02.08.2018 14:22
36 ke Nairobi Rain 19 1019 82 10000 15 60 02.08.2018 14:22
37 ie Dublin Clouds 9 1016 75 10000 26 290 02.08.2018 14:21
38 es Madrid Rain 12 1013 62 10000 11 20 02.08.2018 14:23
39 iq Bagdad Clouds 20 1014 42 10000 5 320 02.08.2018 14:22
40 ru Moskau Clouds 3 1002 86 10000 25 220 02.08.2018 14:22
41 gl Nuuk Clear -9 1033 56 10000 37 10 02.08.2018 14:22
42 eg Kairo Clear 21 1016 40 10000 11 350 02.08.2018 14:22
43 de Helgoland Clouds 8 1005 81 10000 35 260 02.08.2018 14:22
44 de Kassel Clouds 6 1010 60 10000 21 310 02.08.2018 14:21
45 es Barcelona Clouds 12 1012 66 10000 26 70 02.08.2018 14:22
46 pt Lissabon Clouds 15 1015 59 10000 13 310 02.08.2018 14:22
47 za Kapstadt Clear 19 1015 77 10000 17 220 02.08.2018 14:22
48 gr Athen Clouds 10 1013 57 10000 11 310 02.08.2018 14:22
49 no Hammerfest Clouds -6 980 67 10000 37 150 02.08.2018 14:22
50 is Reykjavik Clouds -2 1015 86 10000 18 360 02.08.2018 14:22
51 au Darwin Clouds 26 1008 88 10000 2 310 02.08.2018 14:22
52 es Las Palmas de Gran Canaria Clouds 20 1015 68 10000 24 30 02.08.2018 14:21
53 at Innsbruck Clouds 10 1009 46 10000 5 0 02.08.2018 14:23
54 ch Bern Rain 8 1011 42 10000 9 330 02.08.2018 14:23
55 sa Riad Clear 26 1013 26 10000 4 160 02.08.2018 14:21
56 ma Marrakesch Clouds 20 1014 34 10000 9 30 02.08.2018 14:23
57 ma Casablanca Clouds 16 1016 55 10000 18 360 02.08.2018 14:23
58 tr Ankara Rain 9 1007 76 10000 9 220 02.08.2018 14:23
59 tr Istanbul Rain 7 1011 93 10000 24 350 02.08.2018 14:23
60 et Addis Abeba Clouds 18 1026 59 10000 9 50 02.08.2018 14:23
61 ae Dubai Clear 25 1012 65 10000 5 90 02.08.2018 14:21
62 cl Santiago Clouds 31 1013 8 10000 8 280 02.08.2018 14:23
63 pe Cusco Clouds 17 1033 30 10000 21 20 02.08.2018 14:23
64 uy Montevideo Clouds 20 1014 52 10000 46 220 02.08.2018 14:22
65 ru Jakutsk Clouds -16 1021 65 10000 14 300 02.08.2018 14:22
66 it Rom Clouds 8 1012 63 10000 11 270 02.08.2018 14:23
67 cn Peking Clear 9 1022 64 10000 7 340 02.08.2018 14:23
68 mv Male Clouds 29 1010 74 10000 13 70 02.08.2018 14:23
69 no Oslo Snow 1 976 64 10000 15 240 02.08.2018 14:23
70 ru Anadyr Clouds -19 1010 84 10000 14 350 02.08.2018 14:23
71 qa Doha Clear 26 1010 65 10000 11 110 02.08.2018 14:23
72 fr Nizza Clouds 8 1013 53 10000 4 180 02.08.2018 14:22
73 mn Ulaanbaatar Clear -6 1024 57 10000 4 1 02.08.2018 14:23
74 jp Tokio Clouds 10 1019 43 10000 24 350 02.08.2018 14:22
75 de Köln Clouds 8 1012 59 10000 26 300 02.08.2018 14:21
76 gb Glasgow Clouds 6 1012 56 10000 21 300 02.08.2018 14:21
77 gb Manchester Clouds 8 1014 61 10000 18 300 02.08.2018 14:21
78 es Tarifa Clouds 15 1015 67 10000 11 250 02.08.2018 14:21
79 do Santo Domingo Clouds 29 1013 49 10000 18 180 02.08.2018 14:21
80 pg Port Moresby Clouds 23 1008 100 10000 9 300 02.08.2018 14:21
81 au Perth Clear 13 1016 58 10000 17 180 02.08.2018 14:21
82 cn Shanghai Clouds 12 1023 66 10000 7 70 02.08.2018 14:21
83 kr Seoul Clouds 2 1022 93 10000 5 180 02.08.2018 14:21
84 br Manaus Rain 30 1010 74 10000 8 80 02.08.2018 14:21
85 de Freiburg Clouds 9 1011 34 10000 9 330 02.08.2018 14:22
86 fi Rovaniemi Clouds -4 979 62 10000 11 130 02.08.2018 14:21
87 bg Sofia Clouds 0 1014 71 10000 4 0 02.08.2018 14:21
88 fr Bordeaux Clouds 14 1015 33 10000 18 360 02.08.2018 14:21
89 ph Manila Clouds 27 1012 65 10000 5 90 02.08.2018 14:21
90 de Berlin Clouds 7 1007 56 10000 17 270 02.08.2018 14:21
91 de Braunschweig Clouds 8 1007 66 10000 22 230 02.08.2018 14:21
92 de Hamburg Rain 8 1005 70 10000 22 260 02.08.2018 14:21
93 de München Clear 7 1010 42 10000 4 0 02.08.2018 14:21
94 de Trier Clear 6 1012 52 10000 15 290 02.08.2018 14:21
95 mg Antananarivo Clouds 21 1017 83 10000 8 150 02.08.2018 14:21
96 af Kabul Clouds 8 1022 65 10000 2 0 02.08.2018 14:21
97 bg Warna Clear 5 1015 60 10000 11 70 02.08.2018 14:21
98 de Dresden Clouds 6 1008 49 10000 5 290 02.08.2018 14:22
99 de Frankfurt Clouds 9 1010 43 10000 21 330 02.08.2018 14:22
100 de Oberstdorf Clear 7 1010 57 10000 5 190 02.08.2018 14:21
101 ar Buenos Aires Clouds 22 1018 40 10000 13 200 02.08.2018 14:22
102 ck Avarua Clouds 27 1008 88 10000 4 150 02.08.2018 14:22
103 de Hannover Clouds 8 1008 61 10000 26 240 02.08.2018 14:21
104 fr Paris Clouds 9 1015 60 10000 8 290 02.08.2018 14:22
105 au Alice Springs Clouds 26 1007 57 10000 21 340 02.08.2018 14:21
106 es Sevilla Clouds 16 1013 59 10000 5 200 02.08.2018 14:22
107 es Palma de Mallorca Rain 14 1010 82 10000 22 50 02.08.2018 14:22
108 de Nürnberg Clear 8 1009 39 10000 8 270 02.08.2018 14:21
109 br Rio de Janeiro Clear 31 1008 70 10000 18 180 02.08.2018 14:22
110 au Sydney Mist 17 1009 93 10000 5 360 02.08.2018 14:22
111 gb London Clouds 11 1013 66 10000 17 280 02.08.2018 14:22
112 bo La Paz Clouds 17 1041 33 10000 18 90 02.08.2018 14:22
113 de Bremen Clouds 8 1007 66 10000 28 260 02.08.2018 14:22
114 th Bangkok Clouds 30 1010 74 10000 11 190 02.08.2018 14:21
115 it Mailand Clear 10 1012 37 10000 4 180 02.08.2018 14:21
116 bs Nassau Clouds 25 1015 50 10000 13 40 02.08.2018 14:22
117 de Stuttgart Clear 8 1010 31 10000 11 310 02.08.2018 14:22
118 ec San Cristobal Clouds 29 1009 74 10000 17 140 02.08.2018 14:22
119 ca Montreal Rain 6 1009 80 14484 24 340 02.08.2018 14:22
120 us Tucson Clear 25 1013 19 16093 9 200 02.08.2018 14:21
121 us Las Vegas Clouds 18 1014 17 16093 33 20 02.08.2018 14:21
122 us Los Angeles Clouds 18 1015 52 16093 5 175 02.08.2018 14:22
123 us Nome Clouds -7 1019 92 16093 22 70 02.08.2018 14:23
124 us Fairbanks Clouds -5 1024 72 16093 2 160 02.08.2018 14:23
125 us Honolulu Clouds 23 1014 78 16093 8 350 02.08.2018 14:22
126 us Chicago Clouds 14 1021 41 16093 8 110 02.08.2018 14:23
127 us New York Clouds 13 1004 50 16093 13 220 02.08.2018 14:22
128 us Miami Clouds 27 1015 42 16093 11 360 02.08.2018 14:23